Ruby Airport
PARY : now visible

Aeroporto :











RITROVATECI SU...

 
LOGIN :

Iscrizione | Disclaimer

   EN    FR    IT 

 









Sommario :    VFR   VFR Marginale   IFR   IFR Intensivo   IFR Molto Intensivo
Visibilità : 
Base nubi : 
>= 8 km
>= 3000ft
5 / 8 km
1000 / 3000 ft
1500m / 5 km
500 / 1000 ft
800 / 1500m
200 / 500 ft
< 800m
< 200 ft
Simboli :   Temporali  Nebbia  Neve Forte  Precipitazioni Forti  Vento > 20 kt






- Altitudine del aeroporto : 658 ft
- Codice IATA : RBY


PARY - Ruby

ULTIMO METAR :
  • 280456Z AUTO 04004KT 10SM OVC012 M01/M02 A2960 RMK AO2 SLP037 T10061017 FZRANO

METARs OBSOLETI :
  • 280356Z AUTO 03005KT 10SM OVC010 00/M01 A2960 RMK AO2 SLP039 T00001011 FZRANO
  • 280333Z AUTO 00000KT 10SM OVC010 00/M02 A2960 RMK AO2 CIG 007V012 FZRANO
  • 280256Z AUTO 05005KT 10SM OVC008 00/M02 A2961 RMK AO2 SLP041 T00001017 56012 FZRANO
  • 280156Z AUTO 10006KT 10SM OVC006 00/M02 A2962 RMK AO2 SLP044 T00001017 FZRANO

TAF N/A
FIR PAZA / America del Nord



MetMap, La meteo Aeronautica in un colpo d'occhio ! - Copyright ORBIFLY Dicembre 2007 - Disclaimer

ORBIFLY MET'MAP TEAM :

Programmazione e sviluppo : Alexandra Zaïnal
Concezione : Baudouin d'Aumeries
Aiuto per la programmazione : Marc-Olivier Méhu
Supporto tecnico e logistico : Manuel Goepfert
Aiuto per la traduzione : Arnaldo La Scala

Contatto : metmap@orbifly.com




FONTI E CREDITI :

   NOAA       Earth
Advisory